Time;durP1;ratioP1;P1;durP2;ratioP2;P2;SDS_P1;SDS_P2;PMS_P1;PMS_P2;Temp;Humidity;BMP_temperature;BMP_pressure;BME280_temperature;BME280_humidity;BME280_pressure;Samples;Min_cycle;Max_cycle;Signal;HPM_P1;HPM_P2
2024/03/17 00:02:21;;;;;;;8.50;2.70;;;;;;;6.95;74.63;100265.34;130833;1254;108458;-82
2024/03/17 00:05:27;;;;;;;8.20;3.00;;;;;;;6.96;74.52;100270.54;130886;1258;107737;-82
2024/03/17 00:08:32;;;;;;;7.40;2.70;;;;;;;6.96;74.60;100270.41;130875;1257;107707;-82
2024/03/17 00:11:37;;;;;;;7.50;2.40;;;;;;;6.95;74.18;100269.38;130910;1257;108341;-82
2024/03/17 00:14:44;;;;;;;9.40;2.60;;;;;;;6.88;74.22;100271.00;130868;1253;109171;-82
2024/03/17 00:17:49;;;;;;;10.40;2.80;;;;;;;6.81;74.60;100272.32;130932;1257;107011;-82
2024/03/17 00:20:55;;;;;;;11.10;2.60;;;;;;;6.76;74.40;100273.83;130806;1258;109764;-82
2024/03/17 00:24:00;;;;;;;9.10;1.80;;;;;;;6.75;74.92;100272.48;130650;1257;108674;-82
2024/03/17 00:27:06;;;;;;;11.70;2.40;;;;;;;6.73;74.75;100275.30;130780;1257;106751;-82
2024/03/17 00:30:13;;;;;;;7.70;2.40;;;;;;;6.67;74.94;100274.70;130921;1253;106630;-82
2024/03/17 00:33:19;;;;;;;9.30;2.40;;;;;;;6.63;74.77;100280.86;130909;1257;107801;-83
2024/03/17 00:36:24;;;;;;;6.80;1.90;;;;;;;6.59;74.73;100279.30;130761;1257;106379;-82
2024/03/17 00:39:30;;;;;;;6.30;2.20;;;;;;;6.54;75.23;100284.41;130684;1258;106678;-82
2024/03/17 00:42:35;;;;;;;7.00;2.00;;;;;;;6.48;75.08;100282.61;130703;1258;106475;-82
2024/03/17 00:45:40;;;;;;;7.40;2.20;;;;;;;6.45;75.21;100282.74;130893;1257;108669;-82
2024/03/17 00:48:47;;;;;;;9.40;2.80;;;;;;;6.40;75.50;100282.98;130933;1253;107002;-82
2024/03/17 00:51:52;;;;;;;7.30;2.10;;;;;;;6.35;75.32;100285.16;130817;1257;107766;-82
2024/03/17 00:54:57;;;;;;;8.30;2.00;;;;;;;6.29;75.66;100285.45;130699;1253;108376;-82
2024/03/17 00:58:03;;;;;;;7.40;2.00;;;;;;;6.28;75.66;100286.53;130699;1253;107115;-82
2024/03/17 01:01:08;;;;;;;8.10;2.50;;;;;;;6.33;75.54;100285.14;130818;1255;106848;-82
2024/03/17 01:04:13;;;;;;;9.30;2.30;;;;;;;6.34;76.13;100285.42;130837;1258;108232;-82
2024/03/17 01:07:18;;;;;;;8.10;2.30;;;;;;;6.32;76.01;100286.31;130710;1253;106655;-82
2024/03/17 01:10:23;;;;;;;7.40;2.10;;;;;;;6.33;76.04;100285.80;130742;1253;107900;-82
2024/03/17 01:13:28;;;;;;;5.90;2.10;;;;;;;6.40;76.00;100283.34;130778;1258;108862;-82
2024/03/17 01:16:33;;;;;;;6.00;2.40;;;;;;;6.39;75.96;100277.38;130866;1258;106775;-82
2024/03/17 01:19:39;;;;;;;7.80;2.60;;;;;;;6.37;75.83;100273.18;130830;1258;106980;-82
2024/03/17 01:22:44;;;;;;;9.80;2.60;;;;;;;6.31;75.84;100275.95;130729;1258;107852;-82
2024/03/17 01:25:49;;;;;;;6.70;2.40;;;;;;;6.25;76.13;100277.40;130612;1257;107599;-82
2024/03/17 01:28:54;;;;;;;8.10;2.30;;;;;;;6.21;76.48;100270.73;130654;1258;107790;-82
2024/03/17 01:31:59;;;;;;;5.90;2.70;;;;;;;6.18;76.60;100278.17;130603;1258;106315;-82
2024/03/17 01:35:06;;;;;;;10.30;2.80;;;;;;;6.12;76.88;100279.41;130645;1257;107738;-82
2024/03/17 01:38:12;;;;;;;7.10;2.60;;;;;;;6.09;76.84;100278.07;130669;1257;106384;-82
2024/03/17 01:41:17;;;;;;;9.10;3.20;;;;;;;6.09;77.14;100280.84;130640;1258;106563;-82
2024/03/17 01:44:27;;;;;;;8.40;3.00;;;;;;;6.06;77.65;100281.28;130763;1254;106351;-82
2024/03/17 01:47:32;;;;;;;7.30;3.20;;;;;;;5.98;77.91;100284.92;130858;1253;108673;-82
2024/03/17 01:50:38;;;;;;;9.70;4.40;;;;;;;5.89;77.41;100285.77;130787;1253;106925;-82
2024/03/17 01:53:45;;;;;;;8.60;3.70;;;;;;;5.85;77.94;100285.72;130862;1253;108528;-82
2024/03/17 01:56:51;;;;;;;7.90;3.60;;;;;;;5.78;77.97;100284.70;130847;1258;106592;-83
2024/03/17 01:59:56;;;;;;;10.40;3.90;;;;;;;5.74;77.87;100289.97;130840;1257;106822;-82
2024/03/17 02:03:02;;;;;;;9.20;3.80;;;;;;;5.75;78.47;100292.52;130779;1258;106277;-82
2024/03/17 02:06:09;;;;;;;10.40;4.10;;;;;;;5.75;78.01;100296.59;130785;1253;107506;-82
2024/03/17 02:09:14;;;;;;;9.60;4.40;;;;;;;5.79;78.80;100299.10;130753;1258;107846;-82
2024/03/17 02:12:19;;;;;;;12.90;5.10;;;;;;;5.75;78.91;100297.15;130777;1257;108663;-82
2024/03/17 02:15:24;;;;;;;10.10;4.90;;;;;;;5.73;78.52;100306.27;130854;1264;108862;-82
2024/03/17 02:18:29;;;;;;;10.30;5.20;;;;;;;5.76;78.65;100305.02;130789;1257;107499;-82
2024/03/17 02:21:34;;;;;;;11.70;5.80;;;;;;;5.71;78.80;100304.99;130878;1256;108634;-82
2024/03/17 02:24:40;;;;;;;13.90;4.30;;;;;;;5.67;79.29;100309.91;130851;1256;106588;-81
2024/03/17 02:27:45;;;;;;;12.00;4.90;;;;;;;5.61;79.79;100308.96;131260;1253;108646;-82
2024/03/17 02:30:50;;;;;;;12.10;4.90;;;;;;;5.66;79.93;100310.87;130884;1256;107616;-82
2024/03/17 02:33:55;;;;;;;10.20;4.80;;;;;;;5.73;79.90;100311.42;130857;1252;106447;-83
2024/03/17 02:37:00;;;;;;;10.70;4.90;;;;;;;5.77;80.17;100317.46;130924;1253;107800;-82
2024/03/17 02:40:10;;;;;;;9.80;4.80;;;;;;;5.76;79.86;100314.84;130842;1255;107262;-82
2024/03/17 02:43:15;;;;;;;11.40;5.10;;;;;;;5.77;80.34;100317.30;130844;1253;106481;-82
2024/03/17 02:46:20;;;;;;;10.20;5.30;;;;;;;5.69;80.38;100324.98;130880;1257;107790;-82
2024/03/17 02:49:26;;;;;;;17.30;6.40;;;;;;;5.63;80.86;100322.97;130828;1253;108460;-82
2024/03/17 02:52:32;;;;;;;11.30;5.10;;;;;;;5.62;80.75;100327.81;130821;1256;108531;-82
2024/03/17 02:55:37;;;;;;;10.90;5.40;;;;;;;5.62;80.76;100331.00;130814;1256;106945;-82
2024/03/17 02:58:42;;;;;;;9.90;4.50;;;;;;;5.61;81.10;100337.02;130746;1257;108587;-82
2024/03/17 03:01:47;;;;;;;11.80;5.60;;;;;;;5.63;80.93;100331.26;130758;1263;107701;-82
2024/03/17 03:04:52;;;;;;;8.40;5.00;;;;;;;5.70;81.02;100330.31;130758;1253;107746;-82
2024/03/17 03:07:58;;;;;;;11.10;5.20;;;;;;;5.74;80.56;100327.18;130877;1258;107170;-82
2024/03/17 03:11:04;;;;;;;11.50;5.50;;;;;;;5.76;80.83;100334.06;130870;1256;108519;-82
2024/03/17 03:14:09;;;;;;;12.30;4.80;;;;;;;5.80;80.68;100338.61;130768;1258;106718;-82
2024/03/17 03:17:14;;;;;;;10.50;4.60;;;;;;;5.81;80.45;100333.16;130815;1268;106495;-82
2024/03/17 03:20:19;;;;;;;13.50;5.80;;;;;;;5.81;80.44;100332.15;130823;1258;106042;-82
2024/03/17 03:23:25;;;;;;;10.70;5.00;;;;;;;5.83;80.38;100334.22;130785;1253;108490;-82
2024/03/17 03:26:30;;;;;;;11.10;5.10;;;;;;;5.89;79.82;100335.01;130835;1257;106525;-82
2024/03/17 03:29:35;;;;;;;12.10;5.10;;;;;;;5.93;79.90;100339.84;130784;1258;108432;-82
2024/03/17 03:32:40;;;;;;;12.50;4.80;;;;;;;5.91;80.20;100335.95;130805;1253;107686;-81
2024/03/17 03:35:46;;;;;;;10.70;4.30;;;;;;;5.80;79.99;100332.90;130858;1258;107746;-82
2024/03/17 03:38:51;;;;;;;11.90;5.70;;;;;;;5.74;80.02;100332.65;130811;1257;107180;-82
2024/03/17 03:41:56;;;;;;;11.60;5.30;;;;;;;5.72;80.12;100331.93;130906;1258;109546;-82
2024/03/17 03:45:01;;;;;;;11.00;4.50;;;;;;;5.66;80.01;100333.98;130729;1253;108801;-82
2024/03/17 03:48:09;;;;;;;12.70;4.10;;;;;;;5.62;79.86;100330.29;130747;1257;107622;-82
2024/03/17 03:51:14;;;;;;;12.20;5.40;;;;;;;5.53;79.86;100333.74;130763;1258;108822;-82
2024/03/17 03:54:19;;;;;;;11.40;4.50;;;;;;;5.47;79.67;100331.95;130805;1257;106248;-82
2024/03/17 03:57:28;;;;;;;10.60;4.90;;;;;;;5.46;79.64;100337.66;130845;1257;108849;-82
2024/03/17 04:00:34;;;;;;;16.70;4.80;;;;;;;5.42;79.47;100331.97;130849;1253;108831;-82
2024/03/17 04:03:39;;;;;;;9.00;4.80;;;;;;;5.42;79.42;100330.06;130847;1257;107043;-82
2024/03/17 04:06:44;;;;;;;8.40;4.50;;;;;;;5.37;79.31;100329.20;130867;1257;108054;-82
2024/03/17 04:09:50;;;;;;;11.50;5.10;;;;;;;5.30;79.10;100329.51;130879;1257;108818;-80
2024/03/17 04:12:55;;;;;;;12.30;5.20;;;;;;;5.21;79.03;100332.48;130815;1258;107576;-82
2024/03/17 04:16:01;;;;;;;14.30;5.30;;;;;;;5.13;78.91;100335.77;130888;1254;108630;-81
2024/03/17 04:19:07;;;;;;;10.30;4.80;;;;;;;5.05;78.94;100339.88;130753;1253;108731;-81
2024/03/17 04:22:12;;;;;;;13.80;5.80;;;;;;;4.97;78.79;100345.11;130805;1256;106466;-82
2024/03/17 04:25:18;;;;;;;14.40;5.40;;;;;;;4.90;79.04;100349.45;130757;1253;106269;-81
2024/03/17 04:28:23;;;;;;;16.30;5.20;;;;;;;4.88;78.89;100352.48;130762;1253;107753;-82
2024/03/17 04:31:28;;;;;;;11.10;4.30;;;;;;;4.85;78.73;100354.75;130799;1257;107078;-82
2024/03/17 04:34:34;;;;;;;13.10;4.90;;;;;;;4.86;78.92;100355.98;130807;1258;108624;-82
2024/03/17 04:37:39;;;;;;;14.50;4.80;;;;;;;4.94;78.75;100357.14;130819;1258;108734;-82
2024/03/17 04:40:45;;;;;;;13.70;4.50;;;;;;;5.01;78.48;100353.06;130891;1253;108733;-81
2024/03/17 04:43:51;;;;;;;13.80;4.60;;;;;;;5.07;78.58;100351.40;130768;1257;107714;-82
2024/03/17 04:46:57;;;;;;;10.20;3.60;;;;;;;5.08;78.11;100351.66;130763;1253;107486;-82
2024/03/17 04:50:04;;;;;;;12.00;4.50;;;;;;;5.05;77.64;100355.39;130802;1253;106201;-82
2024/03/17 04:53:09;;;;;;;10.40;4.00;;;;;;;5.02;77.70;100354.40;130804;1259;106462;-82
2024/03/17 04:56:14;;;;;;;10.20;3.70;;;;;;;5.01;77.47;100358.72;130734;1258;108727;-82
2024/03/17 04:59:19;;;;;;;12.20;3.70;;;;;;;4.97;77.48;100356.90;130767;1257;108718;-82
2024/03/17 05:02:24;;;;;;;9.90;4.00;;;;;;;4.99;77.64;100359.17;130809;1257;106368;-82
2024/03/17 05:05:29;;;;;;;10.50;3.10;;;;;;;5.03;77.51;100357.47;130784;1257;108775;-82
2024/03/17 05:08:35;;;;;;;7.40;3.50;;;;;;;5.07;77.34;100364.63;130781;1257;108601;-82
2024/03/17 05:11:40;;;;;;;9.50;3.60;;;;;;;5.09;77.10;100369.05;130835;1257;107559;-82
2024/03/17 05:14:46;;;;;;;11.00;3.20;;;;;;;5.17;77.17;100374.61;130792;1253;107556;-82
2024/03/17 05:17:51;;;;;;;11.20;3.30;;;;;;;5.26;77.40;100376.95;130819;1259;107456;-82
2024/03/17 05:21:04;;;;;;;7.00;3.20;;;;;;;5.40;77.20;100375.20;130851;1258;107902;-82
2024/03/17 05:24:09;;;;;;;8.90;3.00;;;;;;;5.48;77.19;100374.04;130769;1258;107811;-82
2024/03/17 05:27:14;;;;;;;11.70;3.90;;;;;;;5.55;77.13;100370.36;130787;1258;108891;-82
2024/03/17 05:30:19;;;;;;;9.90;3.20;;;;;;;5.56;76.29;100373.84;130749;1257;107722;-82
2024/03/17 05:33:26;;;;;;;8.40;3.30;;;;;;;5.45;76.57;100374.56;130879;1253;106531;-82
2024/03/17 05:36:32;;;;;;;163.90;57.90;;;;;;;5.47;76.25;100371.96;130899;1257;109014;-82
2024/03/17 05:39:37;;;;;;;30.20;12.90;;;;;;;5.52;76.41;100376.22;130788;1253;107717;-82
2024/03/17 05:42:44;;;;;;;29.30;13.80;;;;;;;5.56;76.04;100373.79;130795;1253;106946;-84
2024/03/17 05:45:49;;;;;;;48.10;24.70;;;;;;;5.56;75.90;100376.09;130786;1253;107550;-83
2024/03/17 05:48:55;;;;;;;41.20;23.20;;;;;;;5.51;75.14;100377.48;130858;1253;107285;-83
2024/03/17 05:52:00;;;;;;;49.40;26.40;;;;;;;5.49;75.33;100374.65;130859;1257;107801;-81
2024/03/17 05:55:06;;;;;;;28.80;17.10;;;;;;;5.55;75.27;100372.47;130840;1253;108138;-81
2024/03/17 05:58:12;;;;;;;25.10;13.80;;;;;;;5.56;74.50;100379.27;130877;1259;105819;-82
2024/03/17 06:01:19;;;;;;;27.80;17.00;;;;;;;5.55;74.62;100374.20;130856;1258;108691;-81
2024/03/17 06:04:24;;;;;;;24.60;15.00;;;;;;;5.57;74.41;100371.09;130949;1253;108037;-81
2024/03/17 06:07:30;;;;;;;31.80;18.20;;;;;;;5.60;74.17;100375.09;130876;1256;106806;-81
2024/03/17 06:10:36;;;;;;;49.30;28.70;;;;;;;5.70;73.88;100375.52;130937;1257;106308;-81
2024/03/17 06:13:41;;;;;;;75.80;39.30;;;;;;;5.85;74.27;100380.00;130926;1255;107638;-81
2024/03/17 06:16:48;;;;;;;36.40;17.60;;;;;;;5.98;74.17;100376.03;130869;1253;107659;-81
2024/03/17 06:19:53;;;;;;;27.80;12.90;;;;;;;6.03;73.38;100376.14;130839;1258;106490;-82
2024/03/17 06:22:58;;;;;;;41.50;21.70;;;;;;;6.08;73.16;100369.44;131035;1256;108635;-83
2024/03/17 06:26:05;;;;;;;63.20;32.40;;;;;;;6.10;73.45;100370.66;131140;1258;106250;-83
2024/03/17 06:29:11;;;;;;;35.10;17.80;;;;;;;6.22;72.81;100370.27;130873;1259;107807;-83
2024/03/17 06:32:17;;;;;;;28.00;14.60;;;;;;;6.27;72.21;100370.17;130924;1256;105853;-83
2024/03/17 06:35:26;;;;;;;47.30;25.90;;;;;;;6.30;71.81;100363.98;130908;1253;107914;-83
2024/03/17 06:38:32;;;;;;;57.60;32.00;;;;;;;6.35;72.15;100368.73;130658;1257;108460;-83
2024/03/17 06:41:37;;;;;;;74.10;34.50;;;;;;;6.46;72.12;100380.02;130889;1268;108465;-84
2024/03/17 06:44:42;;;;;;;83.80;39.30;;;;;;;6.53;71.79;100381.19;130908;1256;107719;-83
2024/03/17 06:47:48;;;;;;;62.50;32.30;;;;;;;6.63;71.81;100381.28;130887;1256;106573;-83
2024/03/17 06:50:54;;;;;;;144.00;76.00;;;;;;;6.68;70.83;100377.17;130749;1258;108575;-83
2024/03/17 06:53:59;;;;;;;47.20;21.30;;;;;;;6.69;70.60;100380.05;130810;1258;107647;-84
2024/03/17 06:57:05;;;;;;;76.70;36.40;;;;;;;6.74;71.23;100382.59;130800;1258;106144;-84
2024/03/17 07:00:13;;;;;;;77.80;38.40;;;;;;;6.69;69.06;100386.09;130773;1253;108743;-84
2024/03/17 07:03:19;;;;;;;35.70;16.40;;;;;;;6.66;70.37;100392.55;130777;1258;107772;-83
2024/03/17 07:06:24;;;;;;;125.20;61.00;;;;;;;6.63;68.69;100391.03;130800;1253;108360;-83
2024/03/17 07:09:29;;;;;;;299.60;139.60;;;;;;;6.65;69.92;100393.30;130739;1253;106969;-84
2024/03/17 07:12:34;;;;;;;117.10;54.30;;;;;;;6.72;69.30;100391.39;130776;1258;107652;-79
2024/03/17 07:15:39;;;;;;;90.10;42.50;;;;;;;6.75;69.63;100398.34;130918;1257;107051;-80
2024/03/17 07:18:44;;;;;;;45.80;22.40;;;;;;;6.80;68.89;100403.94;130797;1268;106467;-80
2024/03/17 07:21:49;;;;;;;62.20;32.00;;;;;;;6.79;68.22;100400.67;130868;1258;107684;-80
2024/03/17 07:24:56;;;;;;;104.40;46.70;;;;;;;6.81;68.89;100401.58;130848;1254;108537;-80
2024/03/17 07:28:01;;;;;;;96.20;46.50;;;;;;;6.84;67.88;100408.04;130828;1259;106430;-80
2024/03/17 07:31:09;;;;;;;42.90;20.80;;;;;;;6.85;68.47;100404.61;130768;1258;108634;-80
2024/03/17 07:34:14;;;;;;;18.70;8.70;;;;;;;6.93;67.35;100403.77;130818;1260;107812;-80
2024/03/17 07:37:19;;;;;;;28.40;12.90;;;;;;;6.93;68.02;100404.34;130785;1254;107748;-80
2024/03/17 07:40:24;;;;;;;48.80;23.70;;;;;;;7.01;67.98;100400.80;130902;1253;108381;-81
2024/03/17 07:43:31;;;;;;;54.80;26.80;;;;;;;7.10;67.39;100409.12;130886;1260;106501;-80
2024/03/17 07:46:36;;;;;;;33.00;16.50;;;;;;;7.14;66.76;100403.29;130884;1253;106812;-82
2024/03/17 07:49:41;;;;;;;34.20;18.50;;;;;;;7.18;67.79;100402.44;130977;1257;107934;-81
2024/03/17 07:52:47;;;;;;;23.90;11.90;;;;;;;7.27;68.04;100400.63;130864;1258;107717;-80
2024/03/17 07:56:00;;;;;;;62.70;33.80;;;;;;;7.36;67.98;100399.30;130831;1257;107401;-80
2024/03/17 07:59:11;;;;;;;28.90;17.30;;;;;;;7.36;66.25;100395.11;131739;1253;107770;-81
2024/03/17 08:02:16;;;;;;;15.40;7.30;;;;;;;7.36;66.38;100397.23;131296;1253;107271;-81
2024/03/17 08:05:22;;;;;;;36.10;19.00;;;;;;;7.33;66.21;100397.10;130825;1253;108654;-81
2024/03/17 08:08:28;;;;;;;13.30;6.10;;;;;;;7.32;65.25;100396.33;130783;1253;107802;-82
2024/03/17 08:11:33;;;;;;;12.00;6.50;;;;;;;7.31;66.15;100398.50;130749;1266;106936;-79
2024/03/17 08:14:39;;;;;;;17.70;8.60;;;;;;;7.33;66.22;100392.71;130823;1259;106029;-80
2024/03/17 08:17:44;;;;;;;238.50;109.10;;;;;;;7.49;65.72;100395.42;130881;1257;107823;-85
2024/03/17 08:20:49;;;;;;;68.50;29.10;;;;;;;7.59;65.55;100402.75;131903;1256;105829;-84
2024/03/17 08:23:54;;;;;;;169.20;74.60;;;;;;;7.55;65.20;100402.16;132313;1254;107855;-82
2024/03/17 08:26:59;;;;;;;49.20;19.70;;;;;;;7.63;65.86;100404.70;132997;1253;106875;-80
2024/03/17 08:30:05;;;;;;;22.80;8.30;;;;;;;7.68;65.06;100403.70;131574;1253;107731;-80
2024/03/17 08:33:10;;;;;;;28.00;13.50;;;;;;;7.72;64.61;100401.46;132505;1255;107116;-82
2024/03/17 08:36:19;;;;;;;14.00;5.90;;;;;;;7.83;65.15;100404.70;132993;1256;107988;-82
2024/03/17 08:39:24;;;;;;;102.30;56.80;;;;;;;7.92;64.83;100406.80;131491;1253;107669;-84
2024/03/17 08:42:29;;;;;;;45.90;26.70;;;;;;;7.94;63.67;100408.57;131097;1257;106598;-86
2024/03/17 08:45:35;;;;;;;12.10;5.20;;;;;;;7.89;63.71;100410.05;130961;1255;106718;-83
2024/03/17 08:48:42;;;;;;;7.40;3.20;;;;;;;7.89;64.68;100411.20;130866;1257;108571;-84
2024/03/17 08:51:47;;;;;;;30.60;15.80;;;;;;;7.78;63.34;100410.61;130949;1254;108158;-86
2024/03/17 08:54:53;;;;;;;19.40;10.80;;;;;;;7.67;63.06;100411.73;131051;1253;108158;-86
2024/03/17 08:57:58;;;;;;;8.00;3.70;;;;;;;7.62;64.02;100404.70;130828;1256;107127;-82
2024/03/17 09:01:07;;;;;;;14.90;9.10;;;;;;;7.59;63.05;100410.91;130961;1253;106716;-82
2024/03/17 09:04:12;;;;;;;14.30;8.50;;;;;;;7.48;64.07;100412.27;130738;1258;108827;-82
2024/03/17 09:07:18;;;;;;;10.60;6.30;;;;;;;7.49;64.41;100416.48;130779;1257;107819;-82
2024/03/17 09:10:24;;;;;;;10.60;5.80;;;;;;;7.35;63.46;100418.16;130760;1259;108406;-83
2024/03/17 09:13:29;;;;;;;15.00;7.60;;;;;;;7.29;64.27;100419.69;130755;1268;106842;-82
2024/03/17 09:16:35;;;;;;;13.60;8.10;;;;;;;7.25;63.73;100421.44;130784;1259;107728;-82
2024/03/17 09:19:41;;;;;;;10.90;6.40;;;;;;;7.21;64.36;100418.69;130671;1258;106470;-83
2024/03/17 09:22:46;;;;;;;7.50;4.30;;;;;;;7.23;64.47;100417.77;130707;1258;107055;-83
2024/03/17 09:26:00;;;;;;;9.10;4.00;;;;;;;7.29;64.38;100410.90;130762;1258;107738;-83
2024/03/17 09:29:06;;;;;;;7.60;3.20;;;;;;;7.21;63.59;100414.19;130922;1266;107713;-83
2024/03/17 09:32:17;;;;;;;9.10;5.40;;;;;;;7.14;63.60;100411.76;130722;1257;107528;-82
2024/03/17 09:35:22;;;;;;;5.40;2.80;;;;;;;7.13;63.87;100412.92;130694;1258;108457;-82
2024/03/17 09:38:28;;;;;;;7.20;3.20;;;;;;;7.03;64.01;100408.81;130720;1258;107095;-82
2024/03/17 09:41:33;;;;;;;6.50;3.50;;;;;;;6.96;63.93;100410.45;130973;1257;108753;-82
2024/03/17 09:44:40;;;;;;;9.50;3.90;;;;;;;6.85;63.92;100411.34;130909;1270;106260;-81
2024/03/17 09:47:45;;;;;;;8.00;2.80;;;;;;;6.73;64.13;100417.80;130863;1256;107600;-82
2024/03/17 09:50:54;;;;;;;11.10;4.60;;;;;;;6.55;64.51;100423.46;130833;1266;106778;-83
2024/03/17 09:54:00;;;;;;;39.10;25.20;;;;;;;6.38;64.59;100416.02;130858;1254;106549;-83
2024/03/17 09:57:15;;;;;;;25.20;15.20;;;;;;;6.33;64.51;100424.54;130842;1256;107615;-82
2024/03/17 10:00:20;;;;;;;65.00;35.70;;;;;;;6.31;64.80;100420.61;131134;1259;108687;-82
2024/03/17 10:03:46;;;;;;;60.20;30.80;;;;;;;6.37;64.59;100425.27;130698;1259;106733;-82
2024/03/17 10:06:51;;;;;;;23.50;10.30;;;;;;;6.21;64.64;100439.02;130751;1259;107884;-82
2024/03/17 10:10:13;;;;;;;58.00;34.70;;;;;;;6.02;67.47;100439.84;130772;1260;106643;-81
2024/03/17 10:13:19;;;;;;;13.60;7.20;;;;;;;6.00;68.14;100441.76;130791;1258;106454;-83
2024/03/17 10:16:26;;;;;;;11.50;4.70;;;;;;;6.11;68.65;100442.18;130662;1268;106429;-81
2024/03/17 10:19:31;;;;;;;71.30;41.10;;;;;;;6.41;68.18;100429.91;131084;1254;106382;-81
2024/03/17 10:22:36;;;;;;;39.10;21.10;;;;;;;6.79;67.74;100426.48;130912;1257;108709;-82
2024/03/17 10:25:41;;;;;;;36.40;19.00;;;;;;;7.15;66.84;100428.53;130951;1257;107822;-85
2024/03/17 10:28:48;;;;;;;13.10;5.70;;;;;;;7.23;66.10;100424.46;130973;1257;107942;-84
2024/03/17 10:31:55;;;;;;;11.10;4.80;;;;;;;6.94;65.02;100430.73;130946;1266;107564;-82
2024/03/17 10:35:00;;;;;;;122.60;54.60;;;;;;;6.60;66.63;100437.38;130973;1267;108390;-83
2024/03/17 10:38:08;;;;;;;28.90;14.60;;;;;;;6.37;67.98;100447.39;130775;1257;106617;-83
2024/03/17 10:41:13;;;;;;;21.70;11.00;;;;;;;6.08;68.25;100451.15;131071;1256;108612;-82
2024/03/17 10:44:19;;;;;;;8.50;4.40;;;;;;;5.87;68.87;100450.86;130806;1257;106855;-83
2024/03/17 10:47:26;;;;;;;6.70;3.40;;;;;;;5.71;68.73;100453.30;130856;1257;106513;-81
2024/03/17 10:50:36;;;;;;;8.60;4.90;;;;;;;5.61;68.37;100446.25;130883;1258;108890;-80
2024/03/17 10:53:41;;;;;;;6.40;2.90;;;;;;;5.69;68.07;100454.28;130830;1259;106619;-81
2024/03/17 10:56:47;;;;;;;7.80;4.10;;;;;;;5.68;67.15;100450.30;130781;1257;106302;-83
2024/03/17 10:59:53;;;;;;;6.70;3.80;;;;;;;5.75;66.99;100451.92;130831;1257;107723;-82
2024/03/17 11:02:59;;;;;;;9.80;6.50;;;;;;;5.89;67.18;100452.77;130764;1258;107418;-82
2024/03/17 11:06:06;;;;;;;10.80;6.70;;;;;;;6.07;64.62;100458.67;130767;1256;106221;-81
2024/03/17 11:09:16;;;;;;;5.40;2.80;;;;;;;6.20;64.44;100454.55;130984;1254;108727;-82
2024/03/17 11:12:47;;;;;;;10.80;7.70;;;;;;;6.37;64.68;100454.23;130954;1260;106363;-87
2024/03/17 11:15:58;;;;;;;15.30;9.30;;;;;;;6.54;63.98;100449.56;131288;1257;108633;-81
2024/03/17 11:19:08;;;;;;;8.10;5.00;;;;;;;6.72;62.80;100450.59;131672;1254;108791;-81
2024/03/17 11:22:43;;;;;;;4.90;2.70;;;;;;;6.91;62.77;100440.59;131538;1254;107844;-81
2024/03/17 11:25:54;;;;;;;3.60;2.30;;;;;;;6.99;62.84;100436.85;131071;1254;108665;-81
2024/03/17 11:29:06;;;;;;;2.90;2.10;;;;;;;6.97;61.47;100437.45;131029;1256;107854;-81
2024/03/17 11:32:33;;;;;;;4.30;2.10;;;;;;;6.78;59.41;100440.33;133843;1253;107770;-82
2024/03/17 11:35:39;;;;;;;2.90;1.60;;;;;;;6.61;57.59;100449.71;131215;1258;108353;-82
2024/03/17 11:38:58;;;;;;;43.00;18.20;;;;;;;6.54;58.25;100444.23;131346;1254;106506;-84
2024/03/17 11:42:14;;;;;;;15.10;6.60;;;;;;;6.52;57.94;100448.67;131894;1254;108730;-82
2024/03/17 11:45:21;;;;;;;30.20;11.50;;;;;;;6.51;57.74;100451.32;131308;1258;108753;-82
2024/03/17 11:48:27;;;;;;;8.10;3.40;;;;;;;6.55;58.81;100446.80;130837;1258;107588;-82
2024/03/17 11:51:35;;;;;;;7.90;3.60;;;;;;;6.65;58.83;100449.89;130835;1266;107828;-82
2024/03/17 11:54:41;;;;;;;3.50;1.80;;;;;;;6.63;57.43;100447.55;130915;1257;106973;-82
2024/03/17 11:57:50;;;;;;;7.00;3.70;;;;;;;6.65;57.82;100440.12;130919;1257;108503;-82
2024/03/17 12:00:56;;;;;;;72.70;37.80;;;;;;;6.70;57.68;100440.08;130672;1257;106761;-82
2024/03/17 12:04:05;;;;;;;17.90;8.80;;;;;;;6.77;57.63;100438.36;130649;1259;107691;-83
2024/03/17 12:07:14;;;;;;;18.70;9.80;;;;;;;6.79;56.39;100435.87;130674;1257;107707;-83
2024/03/17 12:10:20;;;;;;;21.70;8.40;;;;;;;6.68;55.06;100445.95;130922;1258;106655;-83
2024/03/17 12:13:33;;;;;;;6.60;3.60;;;;;;;6.55;55.15;100444.73;130947;1258;106788;-82
2024/03/17 12:16:40;;;;;;;31.80;12.40;;;;;;;6.48;56.24;100443.11;130916;1257;106574;-82
2024/03/17 12:19:47;;;;;;;5.40;1.80;;;;;;;6.51;56.35;100448.70;130682;1257;108772;-82
2024/03/17 12:22:54;;;;;;;11.10;4.80;;;;;;;6.43;56.40;100451.45;130779;1258;108566;-82
2024/03/17 12:26:00;;;;;;;5.10;2.80;;;;;;;6.36;56.72;100457.30;130950;1254;107919;-82
2024/03/17 12:29:05;;;;;;;11.50;5.30;;;;;;;6.17;55.83;100458.78;130956;1257;106943;-82
2024/03/17 12:32:16;;;;;;;7.70;3.30;;;;;;;6.04;56.92;100459.94;130996;1257;107777;-82
2024/03/17 12:35:22;;;;;;;6.90;3.00;;;;;;;6.00;56.48;100456.09;131021;1256;106281;-82
2024/03/17 12:38:27;;;;;;;52.50;23.50;;;;;;;5.92;56.60;100453.27;130971;1257;106926;-82
2024/03/17 12:41:33;;;;;;;15.10;6.60;;;;;;;5.95;57.38;100451.65;130993;1257;106783;-82
2024/03/17 12:44:41;;;;;;;77.50;34.30;;;;;;;6.05;56.98;100452.65;131042;1256;107883;-82
2024/03/17 12:47:49;;;;;;;11.90;5.50;;;;;;;6.18;57.35;100451.52;130864;1255;106852;-81
2024/03/17 12:50:54;;;;;;;7.40;3.50;;;;;;;6.29;56.58;100451.33;130857;1257;108710;-81
2024/03/17 12:54:17;;;;;;;9.70;4.70;;;;;;;6.31;56.86;100446.75;130897;1258;108747;-84
2024/03/17 13:00:45;;;;;;;4.70;2.50;;;;;;;6.14;56.24;100447.02;130937;1258;108465;-84
2024/03/17 13:03:51;;;;;;;3.70;2.10;;;;;;;6.06;56.78;100457.20;131029;1255;107083;-84
2024/03/17 13:06:56;;;;;;;34.30;16.80;;;;;;;5.93;57.31;100452.16;131097;1258;107035;-86
2024/03/17 13:10:02;;;;;;;18.20;8.50;;;;;;;5.93;57.33;100454.79;131216;1254;107288;-83
2024/03/17 13:13:11;;;;;;;2.70;1.60;;;;;;;5.88;57.41;100463.48;130935;1258;106447;-82
2024/03/17 13:16:16;;;;;;;2.50;1.40;;;;;;;5.78;57.94;100463.67;130691;1254;108582;-83
2024/03/17 13:19:21;;;;;;;5.30;2.50;;;;;;;5.67;57.73;100460.27;130990;1256;108667;-83
2024/03/17 13:22:26;;;;;;;23.60;12.70;;;;;;;5.61;58.24;100464.61;130802;1257;106918;-82
2024/03/17 13:25:36;;;;;;;12.90;5.40;;;;;;;5.66;58.99;100456.66;130729;1257;108540;-83
2024/03/17 13:28:41;;;;;;;10.40;5.60;;;;;;;5.75;58.52;100456.73;130820;1255;107937;-82
2024/03/17 13:31:46;;;;;;;5.90;2.90;;;;;;;5.78;58.84;100460.16;131095;1257;107564;-82
2024/03/17 13:34:51;;;;;;;47.10;24.80;;;;;;;5.78;58.58;100458.59;130956;1266;108803;-83
2024/03/17 13:37:59;;;;;;;7.30;4.20;;;;;;;5.78;58.47;100463.67;131098;1254;107530;-82
2024/03/17 13:41:05;;;;;;;2.70;1.50;;;;;;;5.68;58.62;100458.65;130872;1255;108871;-82
2024/03/17 13:44:10;;;;;;;6.50;3.20;;;;;;;5.50;58.77;100468.42;130811;1257;107199;-83
2024/03/17 13:47:17;;;;;;;3.50;1.90;;;;;;;5.39;58.92;100461.85;130922;1253;106907;-80
2024/03/17 13:50:23;;;;;;;3.60;2.10;;;;;;;5.34;59.22;100465.98;130772;1254;107609;-81
2024/03/17 13:53:28;;;;;;;3.60;1.50;;;;;;;5.33;59.37;100472.91;130677;1254;107520;-81
2024/03/17 13:56:33;;;;;;;19.40;9.10;;;;;;;5.30;59.15;100467.98;130689;1254;107774;-81
2024/03/17 13:59:39;;;;;;;3.80;2.10;;;;;;;5.32;59.62;100463.98;130666;1254;107505;-81
2024/03/17 14:02:45;;;;;;;7.10;3.80;;;;;;;5.36;59.71;100465.13;131255;1253;108598;-87
2024/03/17 14:05:49;;;;;;;3.80;2.40;;;;;;;5.34;59.61;100465.23;131019;1257;106585;-84
2024/03/17 14:08:55;;;;;;;17.80;9.50;;;;;;;5.29;59.68;100465.98;130799;1254;108251;-83
2024/03/17 14:12:00;;;;;;;5.70;3.10;;;;;;;5.26;60.43;100467.02;131012;1266;107885;-83